createdAt,value
2022-11-18T00:01:49.516Z,4.47
2022-11-18T00:04:17.538Z,5.00
2022-11-18T00:06:45.260Z,5.00
2022-11-18T00:09:12.909Z,3.43
2022-11-18T00:11:59.546Z,5.05
2022-11-18T00:14:27.651Z,5.50
2022-11-18T00:16:56.471Z,6.32
2022-11-18T00:19:25.129Z,6.03
2022-11-18T00:21:52.893Z,6.70
2022-11-18T00:24:20.781Z,5.72
2022-11-18T00:26:48.715Z,6.13
2022-11-18T00:29:16.967Z,4.85
2022-11-18T00:31:44.886Z,6.45
2022-11-18T00:34:13.498Z,6.13
2022-11-18T00:36:41.834Z,5.13
2022-11-18T00:39:09.624Z,4.38
2022-11-18T00:41:56.199Z,5.97
2022-11-18T00:44:24.020Z,6.63
2022-11-18T00:46:51.694Z,5.70
2022-11-18T00:49:19.564Z,5.10
2022-11-18T00:51:47.439Z,4.03
2022-11-18T00:54:15.235Z,5.85
2022-11-18T00:56:43.046Z,5.82
2022-11-18T00:59:10.823Z,6.03
2022-11-18T01:01:40.790Z,6.35
2022-11-18T01:04:08.594Z,7.20
2022-11-18T01:06:36.372Z,5.13
2022-11-18T01:09:04.096Z,5.90
2022-11-18T01:11:50.591Z,7.63
2022-11-18T01:14:18.341Z,7.70
2022-11-18T01:16:53.362Z,7.00
2022-11-18T01:19:21.284Z,6.40
2022-11-18T01:21:49.125Z,7.75
2022-11-18T01:24:16.886Z,6.20
2022-11-18T01:26:44.723Z,7.25
2022-11-18T01:29:12.504Z,6.07
2022-11-18T01:31:55.644Z,8.50
2022-11-18T01:34:29.461Z,7.77
2022-11-18T01:36:58.709Z,7.57
2022-11-18T01:39:26.507Z,11.38
2022-11-18T01:41:54.240Z,6.77
2022-11-18T01:44:40.822Z,9.52
2022-11-18T01:47:08.517Z,7.68
2022-11-18T01:49:36.254Z,5.93
2022-11-18T01:52:04.026Z,7.20
2022-11-18T01:54:32.609Z,8.35
2022-11-18T01:57:01.163Z,5.68
2022-11-18T01:59:30.221Z,7.20
2022-11-18T02:01:59.880Z,6.38
2022-11-18T02:04:28.114Z,6.88
2022-11-18T02:06:58.880Z,5.60
2022-11-18T02:09:26.602Z,5.93
2022-11-18T02:11:54.836Z,6.60
2022-11-18T02:14:23.905Z,4.03
2022-11-18T02:16:57.528Z,8.07
2022-11-18T02:19:37.601Z,7.63
2022-11-18T02:22:23.891Z,5.85
2022-11-18T02:25:06.847Z,6.33
2022-11-18T02:27:43.756Z,7.22
2022-11-18T02:30:12.105Z,8.27
2022-11-18T02:32:39.842Z,8.60
2022-11-18T02:35:26.190Z,7.68
2022-11-18T02:37:56.751Z,5.70
2022-11-18T02:40:26.165Z,5.17
2022-11-18T02:42:55.874Z,10.40
2022-11-18T02:45:23.746Z,7.53
2022-11-18T02:47:51.527Z,8.85
2022-11-18T02:50:20.781Z,8.97
2022-11-18T02:52:48.476Z,10.05
2022-11-18T02:55:16.404Z,6.75
2022-11-18T02:57:44.508Z,14.73
2022-11-18T03:00:12.536Z,9.07
2022-11-18T03:02:44.070Z,8.85
2022-11-18T03:05:14.617Z,5.20
2022-11-18T03:07:42.409Z,6.03
2022-11-18T03:10:10.112Z,9.43
2022-11-18T03:12:44.564Z,10.93
2022-11-18T03:15:18.465Z,7.10
2022-11-18T03:18:04.772Z,8.30
2022-11-18T03:20:32.471Z,9.25
2022-11-18T03:23:03.113Z,6.10
2022-11-18T03:25:46.422Z,8.73
2022-11-18T03:28:20.491Z,7.05
2022-11-18T03:30:51.572Z,10.97
2022-11-18T03:33:20.417Z,6.93
2022-11-18T03:35:48.774Z,9.45
2022-11-18T03:38:18.310Z,7.75
2022-11-18T03:40:50.413Z,7.60
2022-11-18T03:43:20.236Z,10.75
2022-11-18T03:45:55.300Z,6.97
2022-11-18T03:48:32.949Z,13.37
2022-11-18T03:51:07.292Z,8.63
2022-11-18T03:53:36.406Z,5.28
2022-11-18T03:56:24.013Z,10.80
2022-11-18T03:58:54.208Z,8.98
2022-11-18T04:01:27.657Z,10.30
2022-11-18T04:03:55.486Z,8.02
2022-11-18T04:06:29.676Z,7.43
2022-11-18T04:08:57.869Z,6.40
2022-11-18T04:11:49.126Z,6.05
2022-11-18T04:14:16.958Z,8.20
2022-11-18T04:16:45.095Z,6.50
2022-11-18T04:19:12.824Z,11.25
2022-11-18T04:21:40.694Z,5.20
2022-11-18T04:24:08.809Z,6.93
2022-11-18T04:26:36.524Z,8.00
2022-11-18T04:29:04.216Z,5.18
2022-11-18T04:31:32.034Z,3.20
2022-11-18T04:33:59.790Z,7.22
2022-11-18T04:36:27.515Z,9.18
2022-11-18T04:38:55.239Z,8.70
2022-11-18T04:41:43.001Z,7.90
2022-11-18T04:44:13.797Z,4.63
2022-11-18T04:46:44.676Z,7.07
2022-11-18T04:49:13.997Z,6.85
2022-11-18T04:51:42.275Z,6.05
2022-11-18T04:54:10.110Z,7.72
2022-11-18T04:56:37.995Z,5.50
2022-11-18T04:59:05.740Z,5.85
2022-11-18T05:01:33.563Z,6.03
2022-11-18T05:04:02.237Z,8.97
2022-11-18T05:06:29.996Z,5.13
2022-11-18T05:09:00.509Z,5.28
2022-11-18T05:11:47.100Z,7.23
2022-11-18T05:14:16.295Z,5.32
2022-11-18T05:16:44.877Z,4.45
2022-11-18T05:19:12.639Z,7.43
2022-11-18T05:21:40.450Z,6.10
2022-11-18T05:24:08.339Z,6.22
2022-11-18T05:26:36.122Z,4.05
2022-11-18T05:29:03.816Z,8.53
2022-11-18T05:31:31.694Z,4.85
2022-11-18T05:33:59.527Z,6.45
2022-11-18T05:36:27.344Z,5.50
2022-11-18T05:38:55.150Z,5.53
2022-11-18T05:41:41.552Z,5.53
2022-11-18T05:44:09.425Z,9.57
2022-11-18T05:46:37.120Z,10.83
2022-11-18T05:49:04.895Z,4.80
2022-11-18T05:51:32.621Z,7.28
2022-11-18T05:54:00.477Z,5.93
2022-11-18T05:56:32.454Z,9.07
2022-11-18T05:59:00.205Z,9.90
2022-11-18T06:01:30.715Z,10.40
2022-11-18T06:03:58.519Z,8.15
2022-11-18T06:06:26.175Z,8.65
2022-11-18T06:09:02.018Z,15.48
2022-11-18T06:11:29.721Z,7.33
2022-11-18T06:13:58.803Z,10.52
2022-11-18T06:16:27.099Z,10.70
2022-11-18T06:18:54.878Z,13.30
2022-11-18T06:21:22.629Z,11.43
2022-11-18T06:23:50.492Z,6.88
2022-11-18T06:26:18.257Z,10.57
2022-11-18T06:28:46.401Z,6.65
2022-11-18T06:31:14.187Z,11.40
2022-11-18T06:33:41.930Z,5.95
2022-11-18T06:36:09.809Z,8.50
2022-11-18T06:38:37.547Z,16.02
2022-11-18T06:41:05.296Z,7.38
2022-11-18T06:43:38.945Z,18.50
2022-11-18T06:46:25.762Z,16.90
2022-11-18T06:48:55.096Z,12.50
2022-11-18T06:51:22.920Z,7.27
2022-11-18T06:53:50.924Z,5.93
2022-11-18T06:56:22.206Z,11.43
2022-11-18T06:58:54.282Z,8.57
2022-11-18T07:01:23.564Z,10.63
2022-11-18T07:03:51.707Z,7.97
2022-11-18T07:06:22.953Z,7.72
2022-11-18T07:08:50.820Z,6.33
2022-11-18T07:11:19.841Z,8.15
2022-11-18T07:13:48.080Z,7.82
2022-11-18T07:16:22.557Z,9.67
2022-11-18T07:18:50.849Z,10.93
2022-11-18T07:21:23.305Z,10.23
2022-11-18T07:23:51.132Z,7.05
2022-11-18T07:26:19.077Z,10.43
2022-11-18T07:28:46.822Z,11.18
2022-11-18T07:31:15.379Z,7.20
2022-11-18T07:33:43.724Z,10.50
2022-11-18T07:36:14.346Z,13.55
2022-11-18T07:38:42.146Z,8.82
2022-11-18T07:41:10.933Z,9.30
2022-11-18T07:43:38.927Z,13.00
2022-11-18T07:46:15.560Z,8.98
2022-11-18T07:48:43.756Z,8.20
2022-11-18T07:51:11.436Z,19.23
2022-11-18T07:53:39.326Z,17.35
2022-11-18T07:56:07.509Z,9.35
2022-11-18T07:58:35.423Z,12.70
2022-11-18T08:01:09.291Z,11.15
2022-11-18T08:03:37.183Z,9.82
2022-11-18T08:06:05.302Z,12.23
2022-11-18T08:08:36.133Z,11.75
2022-11-18T08:11:06.171Z,10.15
2022-11-18T08:13:34.137Z,10.15
2022-11-18T08:16:05.137Z,5.97
2022-11-18T08:18:33.000Z,13.07
2022-11-18T08:21:04.003Z,13.40
2022-11-18T08:23:36.125Z,10.17
2022-11-18T08:26:11.975Z,8.23
2022-11-18T08:28:39.772Z,8.55
2022-11-18T08:31:14.212Z,10.33
2022-11-18T08:33:41.984Z,8.90
2022-11-18T08:36:20.105Z,11.40
2022-11-18T08:38:47.828Z,9.25
2022-11-18T08:41:15.831Z,13.27
2022-11-18T08:43:43.706Z,12.85
2022-11-18T08:46:11.459Z,14.43
2022-11-18T08:48:39.281Z,11.87
2022-11-18T08:51:07.123Z,8.02
2022-11-18T08:53:34.850Z,10.50
2022-11-18T08:56:02.642Z,8.93
2022-11-18T08:58:30.349Z,17.55
2022-11-18T09:00:58.154Z,13.38
2022-11-18T09:03:25.930Z,11.70
2022-11-18T09:05:53.730Z,5.23
2022-11-18T09:08:22.071Z,14.82
2022-11-18T09:10:49.839Z,10.85
2022-11-18T09:13:44.779Z,9.07
2022-11-18T09:16:05.536Z,16.50
2022-11-18T09:18:33.306Z,13.02
2022-11-18T09:21:01.847Z,12.50
2022-11-18T09:23:30.707Z,10.32
2022-11-18T09:26:19.411Z,14.80
2022-11-18T09:28:47.500Z,14.60
2022-11-18T09:31:19.001Z,19.10
2022-11-18T09:33:46.891Z,9.48
2022-11-18T09:36:20.508Z,13.82
2022-11-18T09:38:51.840Z,16.40
2022-11-18T09:41:30.568Z,13.45
2022-11-18T09:44:16.879Z,12.00
2022-11-18T09:46:44.623Z,8.00
2022-11-18T09:49:13.865Z,11.48
2022-11-18T09:51:45.524Z,9.30
2022-11-18T09:54:26.104Z,11.70
2022-11-18T09:56:54.277Z,11.63
2022-11-18T09:59:22.819Z,14.65
2022-11-18T10:01:51.069Z,10.40
2022-11-18T10:04:20.007Z,12.57
2022-11-18T10:06:47.906Z,9.90
2022-11-18T10:09:21.549Z,13.50
2022-11-18T10:11:52.122Z,10.97
2022-11-18T10:14:23.842Z,12.90
2022-11-18T10:17:10.423Z,14.80
2022-11-18T10:19:38.616Z,8.57
2022-11-18T10:22:16.708Z,16.10
2022-11-18T10:24:52.792Z,13.30
2022-11-18T10:27:20.652Z,11.15
2022-11-18T10:29:55.334Z,8.63
2022-11-18T10:32:23.558Z,11.40
2022-11-18T10:34:52.704Z,11.73
2022-11-18T10:37:39.094Z,6.90
2022-11-18T10:40:15.785Z,10.43
2022-11-18T10:42:44.768Z,14.73
2022-11-18T10:45:17.198Z,11.35
2022-11-18T10:47:44.978Z,13.97
2022-11-18T10:50:34.940Z,10.90
2022-11-18T10:53:02.821Z,9.82
2022-11-18T10:55:30.768Z,9.73
2022-11-18T10:58:02.071Z,11.57
2022-11-18T11:00:42.907Z,9.30
2022-11-18T11:03:16.842Z,10.27
2022-11-18T11:05:44.493Z,16.15
2022-11-18T11:08:37.051Z,11.45
2022-11-18T11:11:05.490Z,11.80
2022-11-18T11:13:33.307Z,14.27
2022-11-18T11:16:02.416Z,17.13
2022-11-18T11:18:44.166Z,13.48
2022-11-18T11:21:15.004Z,12.40
2022-11-18T11:23:43.867Z,13.27
2022-11-18T11:28:59.305Z,14.83
2022-11-18T11:31:29.873Z,15.50
2022-11-18T11:33:57.658Z,19.83
2022-11-18T11:36:25.296Z,21.10
2022-11-18T11:38:58.639Z,12.77
2022-11-18T11:41:32.422Z,16.90
2022-11-18T11:44:04.361Z,18.83
2022-11-18T11:46:37.918Z,17.27
2022-11-18T11:49:17.939Z,12.45
2022-11-18T11:51:48.235Z,18.42
2022-11-18T11:54:34.391Z,14.70
2022-11-18T11:57:05.642Z,10.95
2022-11-18T11:59:39.043Z,19.25
2022-11-18T12:02:12.836Z,17.13
2022-11-18T12:04:44.951Z,9.63
2022-11-18T12:07:31.984Z,16.17
2022-11-18T12:10:09.695Z,19.45
2022-11-18T12:12:52.800Z,13.17
2022-11-18T12:15:20.716Z,15.35
2022-11-18T12:17:54.658Z,11.32
2022-11-18T12:20:37.894Z,20.93
2022-11-18T12:23:14.456Z,12.70
2022-11-18T12:25:45.279Z,19.83
2022-11-18T12:28:13.014Z,13.27
2022-11-18T12:30:40.688Z,8.40
2022-11-18T12:33:11.721Z,21.70
2022-11-18T12:35:39.579Z,16.00
2022-11-18T12:38:09.418Z,5.50
2022-11-18T12:40:38.094Z,13.57
2022-11-18T12:43:44.696Z,13.45
2022-11-18T12:46:27.514Z,16.80
2022-11-18T12:48:55.225Z,13.15
2022-11-18T12:51:24.714Z,15.20
2022-11-18T12:53:52.703Z,13.63
2022-11-18T12:56:20.680Z,12.87
2022-11-18T12:58:48.838Z,23.00
2022-11-18T13:01:20.638Z,11.55
2022-11-18T13:03:48.596Z,19.70
2022-11-18T13:06:34.210Z,15.13
2022-11-18T13:09:02.367Z,18.15
2022-11-18T13:11:46.077Z,14.80
2022-11-18T13:14:36.937Z,14.98
2022-11-18T13:17:23.605Z,21.42
2022-11-18T13:20:00.601Z,16.80
2022-11-18T13:22:49.020Z,22.07
2022-11-18T13:25:23.909Z,22.30
2022-11-18T13:27:58.897Z,20.65
2022-11-18T13:30:28.640Z,15.43
2022-11-18T13:33:11.562Z,12.70
2022-11-18T13:35:46.943Z,19.15
2022-11-18T13:38:33.595Z,21.20
2022-11-18T13:41:05.533Z,23.80
2022-11-18T13:43:36.421Z,24.73
2022-11-18T13:46:07.144Z,10.13
2022-11-18T13:48:41.379Z,14.13
2022-11-18T13:51:10.623Z,13.57
2022-11-18T13:53:39.886Z,16.15
2022-11-18T13:56:11.747Z,11.53
2022-11-18T13:59:16.751Z,19.02
2022-11-18T14:01:38.203Z,16.90
2022-11-18T14:04:16.214Z,13.10
2022-11-18T14:06:45.407Z,14.52
2022-11-18T14:09:24.971Z,11.73
2022-11-18T14:12:21.597Z,16.95
2022-11-18T14:14:49.457Z,17.17
2022-11-18T14:17:19.923Z,14.90
2022-11-18T14:19:48.640Z,11.05
2022-11-18T14:22:23.143Z,13.53
2022-11-18T14:24:57.867Z,11.30
2022-11-18T14:27:29.390Z,13.88
2022-11-18T14:29:57.211Z,16.50
2022-11-18T14:32:25.439Z,13.30
2022-11-18T14:35:02.142Z,14.90
2022-11-18T14:37:29.825Z,11.80
2022-11-18T14:39:57.952Z,12.17
2022-11-18T14:42:25.714Z,9.93
2022-11-18T14:44:53.616Z,16.38
2022-11-18T14:47:26.788Z,13.17
2022-11-18T14:49:56.353Z,14.25
2022-11-18T14:52:24.098Z,14.38
2022-11-18T14:54:52.919Z,7.03
2022-11-18T14:57:20.604Z,11.48
2022-11-18T14:59:48.418Z,9.35
2022-11-18T15:02:16.815Z,7.30
2022-11-18T15:04:44.812Z,5.20
2022-11-18T15:07:22.857Z,12.73
2022-11-18T15:09:51.421Z,10.02
2022-11-18T15:12:19.051Z,11.23
2022-11-18T15:14:46.880Z,11.75
2022-11-18T15:17:14.635Z,6.95
2022-11-18T15:19:42.401Z,8.90
2022-11-18T15:22:10.174Z,6.32
2022-11-18T15:24:38.864Z,12.02
2022-11-18T15:27:09.529Z,11.48
2022-11-18T15:29:37.260Z,11.93
2022-11-18T15:32:05.719Z,11.20
2022-11-18T15:34:33.449Z,6.53
2022-11-18T15:37:01.220Z,6.83
2022-11-18T15:39:28.970Z,6.80
2022-11-18T15:41:56.747Z,9.40
2022-11-18T15:44:26.935Z,4.00
2022-11-18T15:46:55.696Z,9.45
2022-11-18T15:49:24.209Z,9.50
2022-11-18T15:51:52.084Z,7.20
2022-11-18T15:54:20.298Z,9.80
2022-11-18T15:56:48.400Z,8.95
2022-11-18T15:59:16.475Z,7.00
2022-11-18T16:01:44.953Z,9.17
2022-11-18T16:04:16.621Z,8.68
2022-11-18T16:06:44.665Z,9.85
2022-11-18T16:09:12.739Z,7.23
2022-11-18T16:12:15.716Z,6.15
2022-11-18T16:15:03.440Z,6.45
2022-11-18T16:17:31.230Z,6.63
2022-11-18T16:19:58.940Z,12.47
2022-11-18T16:22:27.747Z,8.05
2022-11-18T16:24:55.415Z,9.05
2022-11-18T16:27:23.866Z,10.37
2022-11-18T16:29:53.612Z,13.50
2022-11-18T16:32:21.480Z,13.80
2022-11-18T16:34:49.247Z,5.63
2022-11-18T16:37:17.015Z,7.63
2022-11-18T16:39:44.722Z,9.18
2022-11-18T16:42:12.820Z,5.93
2022-11-18T16:44:41.052Z,11.23
2022-11-18T16:47:14.197Z,9.40
2022-11-18T16:49:43.231Z,13.70
2022-11-18T16:52:11.807Z,5.27
2022-11-18T16:54:45.573Z,9.93
2022-11-18T16:57:17.624Z,14.60
2022-11-18T16:59:45.463Z,7.90
2022-11-18T17:02:13.873Z,9.57
2022-11-18T17:04:41.870Z,15.15
2022-11-18T17:07:09.674Z,9.57
2022-11-18T17:09:37.564Z,17.90
2022-11-18T17:12:06.650Z,17.88
2022-11-18T17:14:36.200Z,11.90
2022-11-18T17:17:04.538Z,15.47
2022-11-18T17:19:32.286Z,6.60
2022-11-18T17:22:00.297Z,12.32
2022-11-18T17:24:28.190Z,9.70
2022-11-18T17:26:59.135Z,14.20
2022-11-18T17:29:26.937Z,9.95
2022-11-18T17:31:55.572Z,14.98
2022-11-18T17:34:23.383Z,11.27
2022-11-18T17:36:51.496Z,14.07
2022-11-18T17:39:20.936Z,11.07
2022-11-18T17:42:07.715Z,12.67
2022-11-18T17:44:35.607Z,14.07
2022-11-18T17:47:03.357Z,8.40
2022-11-18T17:49:31.142Z,9.57
2022-11-18T17:51:58.954Z,14.43
2022-11-18T17:54:26.836Z,11.75
2022-11-18T17:56:54.619Z,12.52
2022-11-18T17:59:23.200Z,8.40
2022-11-18T18:01:57.304Z,12.57
2022-11-18T18:04:26.579Z,13.23
2022-11-18T18:06:55.169Z,12.60
2022-11-18T18:09:27.013Z,14.15
2022-11-18T18:11:58.387Z,13.30
2022-11-18T18:14:26.342Z,9.40
2022-11-18T18:16:54.332Z,11.85
2022-11-18T18:19:25.198Z,10.75
2022-11-18T18:21:53.603Z,11.30
2022-11-18T18:24:22.132Z,11.20
2022-11-18T18:26:52.590Z,9.27
2022-11-18T18:29:20.413Z,11.85
2022-11-18T18:31:48.118Z,12.97
2022-11-18T18:34:16.581Z,10.35
2022-11-18T18:36:44.605Z,8.93
2022-11-18T18:39:12.363Z,11.93
2022-11-18T18:41:40.195Z,8.90
2022-11-18T18:44:08.457Z,8.68
2022-11-18T18:46:39.725Z,9.00
2022-11-18T18:49:11.129Z,7.37
2022-11-18T18:51:42.484Z,15.98
2022-11-18T18:54:13.936Z,2.03
2022-11-18T18:56:42.005Z,9.13
2022-11-18T18:59:10.053Z,8.55
2022-11-18T19:01:38.552Z,7.35
2022-11-18T19:04:07.341Z,8.57
2022-11-18T19:09:28.815Z,4.28
2022-11-18T19:12:16.289Z,9.32
2022-11-18T19:14:44.193Z,7.40
2022-11-18T19:17:12.972Z,6.32
2022-11-18T19:20:00.215Z,7.30
2022-11-18T19:22:31.837Z,11.43
2022-11-18T19:25:01.287Z,5.88
2022-11-18T19:27:29.512Z,6.32
2022-11-18T19:29:57.601Z,6.30
2022-11-18T19:32:25.503Z,6.15
2022-11-18T19:35:02.824Z,6.63
2022-11-18T19:37:32.022Z,2.40
2022-11-18T19:40:05.733Z,3.23
2022-11-18T19:42:36.943Z,3.70
2022-11-18T19:45:05.864Z,2.45
2022-11-18T19:47:33.665Z,3.93
2022-11-18T19:50:02.173Z,5.13
2022-11-18T19:52:30.724Z,3.97
2022-11-18T19:54:58.630Z,3.17
2022-11-18T19:57:26.524Z,3.35
2022-11-18T19:59:54.403Z,3.45
2022-11-18T20:02:22.387Z,2.88
2022-11-18T20:05:12.344Z,3.40
2022-11-18T20:07:40.875Z,2.75
2022-11-18T20:10:10.592Z,9.20
2022-11-18T20:12:38.523Z,2.30
2022-11-18T20:15:08.049Z,2.65
2022-11-18T20:17:36.302Z,3.92
2022-11-18T20:20:04.409Z,2.60
2022-11-18T20:22:33.383Z,2.28
2022-11-18T20:25:01.592Z,5.10
2022-11-18T20:27:30.099Z,2.42
2022-11-18T20:29:57.864Z,5.20
2022-11-18T20:32:25.624Z,4.00
2022-11-18T20:34:53.461Z,2.35
2022-11-18T20:37:25.511Z,3.83
2022-11-18T20:39:55.698Z,5.88
2022-11-18T20:42:43.628Z,1.75
2022-11-18T20:45:11.998Z,1.97
2022-11-18T20:47:39.752Z,1.88
2022-11-18T20:50:07.722Z,3.80
2022-11-18T20:52:35.453Z,2.95
2022-11-18T20:55:05.830Z,1.83
2022-11-18T20:57:33.888Z,1.63
2022-11-18T21:00:01.632Z,1.10
2022-11-18T21:02:29.438Z,1.83
2022-11-18T21:04:57.196Z,2.33
2022-11-18T21:07:24.899Z,1.35
2022-11-18T21:09:54.164Z,2.33
2022-11-18T21:12:21.828Z,2.47
2022-11-18T21:14:50.567Z,1.00
2022-11-18T21:17:18.275Z,6.00
2022-11-18T21:19:48.513Z,1.77
2022-11-18T21:22:16.472Z,1.60
2022-11-18T21:24:44.138Z,2.72
2022-11-18T21:27:11.875Z,2.43
2022-11-18T21:29:39.569Z,1.55
2022-11-18T21:32:07.361Z,1.30
2022-11-18T21:34:35.245Z,1.10
2022-11-18T21:37:02.998Z,5.25
2022-11-18T21:39:30.738Z,0.77
2022-11-18T21:41:58.642Z,0.90
2022-11-18T21:44:28.557Z,3.87
2022-11-18T21:46:57.004Z,2.15
2022-11-18T21:49:24.713Z,2.20
2022-11-18T21:51:53.837Z,1.50
2022-11-18T21:54:21.536Z,1.00
2022-11-18T21:56:49.957Z,2.65
2022-11-18T21:59:17.861Z,1.43
2022-11-18T22:01:45.793Z,1.55
2022-11-18T22:04:33.459Z,1.05
2022-11-18T22:07:01.141Z,0.55
2022-11-18T22:09:34.605Z,0.20
2022-11-18T22:12:04.885Z,1.42
2022-11-18T22:14:32.713Z,0.80
2022-11-18T22:17:00.374Z,0.90
2022-11-18T22:19:28.124Z,2.63
2022-11-18T22:21:55.798Z,0.88
2022-11-18T22:24:23.638Z,0.70
2022-11-18T22:26:51.381Z,2.00
2022-11-18T22:29:19.288Z,0.85
2022-11-18T22:31:47.224Z,0.50
2022-11-18T22:34:14.884Z,1.63
2022-11-18T22:36:42.653Z,1.33
2022-11-18T22:39:10.408Z,5.95
2022-11-18T22:41:56.868Z,0.80
2022-11-18T22:44:24.654Z,1.83
2022-11-18T22:46:53.488Z,2.42
2022-11-18T22:49:21.695Z,1.60
2022-11-18T22:51:49.622Z,0.90
2022-11-18T22:57:06.215Z,0.90
2022-11-18T22:59:35.004Z,1.77
2022-11-18T23:02:02.719Z,0.70
2022-11-18T23:04:30.525Z,0.32
2022-11-18T23:06:58.281Z,2.00
2022-11-18T23:09:26.050Z,1.65
2022-11-18T23:12:12.464Z,1.15
2022-11-18T23:14:40.346Z,0.93
2022-11-18T23:17:08.089Z,1.15
2022-11-18T23:19:41.969Z,0.75
2022-11-18T23:22:11.082Z,2.88
2022-11-18T23:24:38.821Z,0.83
2022-11-18T23:27:07.671Z,2.63
2022-11-18T23:29:35.576Z,1.10
2022-11-18T23:32:03.405Z,1.30
2022-11-18T23:34:31.164Z,1.27
2022-11-18T23:36:59.066Z,1.38
2022-11-18T23:39:27.306Z,0.93
2022-11-18T23:41:55.225Z,2.13
2022-11-18T23:44:42.883Z,3.78
2022-11-18T23:47:10.679Z,1.35
2022-11-18T23:49:38.337Z,1.90
2022-11-18T23:52:06.172Z,1.35
2022-11-18T23:54:34.029Z,1.40
2022-11-18T23:57:01.867Z,1.53
2022-11-18T23:59:29.629Z,1.48
